sensor_id;sensor_type;location;lat;lon;timestamp;P1;durP1;ratioP1;P2;durP2;ratioP2
55150;SDS011;41041;43.162;20.538;2022-09-09T00:04:37;16.02;;;5.68;;
55150;SDS011;41041;43.162;20.538;2022-09-09T00:07:05;12.82;;;6.00;;
55150;SDS011;41041;43.162;20.538;2022-09-09T00:09:49;14.07;;;6.45;;
55150;SDS011;41041;43.162;20.538;2022-09-09T00:15:13;17.02;;;6.72;;
55150;SDS011;41041;43.162;20.538;2022-09-09T00:18:03;13.05;;;6.65;;
55150;SDS011;41041;43.162;20.538;2022-09-09T00:20:54;11.98;;;6.93;;
55150;SDS011;41041;43.162;20.538;2022-09-09T00:23:28;12.95;;;6.90;;
55150;SDS011;41041;43.162;20.538;2022-09-09T00:26:02;16.10;;;7.20;;
55150;SDS011;41041;43.162;20.538;2022-09-09T00:28:29;12.25;;;6.60;;
55150;SDS011;41041;43.162;20.538;2022-09-09T00:30:59;11.98;;;6.38;;
55150;SDS011;41041;43.162;20.538;2022-09-09T00:33:27;28.20;;;8.00;;
55150;SDS011;41041;43.162;20.538;2022-09-09T00:35:54;16.85;;;7.07;;
55150;SDS011;41041;43.162;20.538;2022-09-09T00:38:56;12.98;;;6.50;;
55150;SDS011;41041;43.162;20.538;2022-09-09T00:44:36;13.43;;;6.40;;
55150;SDS011;41041;43.162;20.538;2022-09-09T00:50:00;15.65;;;6.60;;
55150;SDS011;41041;43.162;20.538;2022-09-09T00:57:46;14.82;;;6.25;;
55150;SDS011;41041;43.162;20.538;2022-09-09T01:05:33;9.98;;;5.97;;
55150;SDS011;41041;43.162;20.538;2022-09-09T01:11:01;14.77;;;6.65;;
55150;SDS011;41041;43.162;20.538;2022-09-09T01:13:34;13.63;;;5.97;;
55150;SDS011;41041;43.162;20.538;2022-09-09T01:16:02;12.07;;;5.93;;
55150;SDS011;41041;43.162;20.538;2022-09-09T01:18:52;12.68;;;6.28;;
55150;SDS011;41041;43.162;20.538;2022-09-09T01:26:44;14.75;;;6.25;;
55150;SDS011;41041;43.162;20.538;2022-09-09T01:29:12;14.25;;;6.10;;
55150;SDS011;41041;43.162;20.538;2022-09-09T01:34:19;14.70;;;6.57;;
55150;SDS011;41041;43.162;20.538;2022-09-09T01:39:24;14.40;;;6.10;;
55150;SDS011;41041;43.162;20.538;2022-09-09T01:41:50;9.75;;;6.10;;
55150;SDS011;41041;43.162;20.538;2022-09-09T01:44:16;9.32;;;6.15;;
55150;SDS011;41041;43.162;20.538;2022-09-09T01:46:44;12.82;;;6.43;;
55150;SDS011;41041;43.162;20.538;2022-09-09T01:49:10;10.25;;;6.20;;
55150;SDS011;41041;43.162;20.538;2022-09-09T01:51:36;13.15;;;6.00;;
55150;SDS011;41041;43.162;20.538;2022-09-09T01:54:04;11.88;;;5.78;;
55150;SDS011;41041;43.162;20.538;2022-09-09T01:59:25;12.63;;;6.00;;
55150;SDS011;41041;43.162;20.538;2022-09-09T02:02:05;20.65;;;6.60;;
55150;SDS011;41041;43.162;20.538;2022-09-09T02:07:06;12.00;;;5.78;;
55150;SDS011;41041;43.162;20.538;2022-09-09T02:09:57;13.82;;;6.68;;
55150;SDS011;41041;43.162;20.538;2022-09-09T02:12:34;12.68;;;6.57;;
55150;SDS011;41041;43.162;20.538;2022-09-09T02:15:06;14.73;;;6.07;;
55150;SDS011;41041;43.162;20.538;2022-09-09T02:17:38;11.80;;;6.28;;
55150;SDS011;41041;43.162;20.538;2022-09-09T02:20:08;11.38;;;5.93;;
55150;SDS011;41041;43.162;20.538;2022-09-09T02:22:38;16.27;;;6.30;;
55150;SDS011;41041;43.162;20.538;2022-09-09T02:25:08;13.20;;;6.25;;
55150;SDS011;41041;43.162;20.538;2022-09-09T02:27:37;11.35;;;6.93;;
55150;SDS011;41041;43.162;20.538;2022-09-09T02:30:03;12.00;;;6.60;;
55150;SDS011;41041;43.162;20.538;2022-09-09T02:32:30;13.70;;;6.95;;
55150;SDS011;41041;43.162;20.538;2022-09-09T02:35:00;17.77;;;6.63;;
55150;SDS011;41041;43.162;20.538;2022-09-09T02:37:40;11.63;;;6.60;;
55150;SDS011;41041;43.162;20.538;2022-09-09T02:40:11;12.38;;;5.75;;
55150;SDS011;41041;43.162;20.538;2022-09-09T02:42:48;16.05;;;6.00;;
55150;SDS011;41041;43.162;20.538;2022-09-09T02:45:18;11.80;;;6.40;;
55150;SDS011;41041;43.162;20.538;2022-09-09T02:47:56;20.33;;;6.25;;
55150;SDS011;41041;43.162;20.538;2022-09-09T02:55:47;13.80;;;6.93;;
55150;SDS011;41041;43.162;20.538;2022-09-09T02:58:17;14.30;;;6.57;;
55150;SDS011;41041;43.162;20.538;2022-09-09T03:00:45;13.63;;;6.93;;
55150;SDS011;41041;43.162;20.538;2022-09-09T03:03:12;15.15;;;6.97;;
55150;SDS011;41041;43.162;20.538;2022-09-09T03:05:38;12.90;;;6.35;;
55150;SDS011;41041;43.162;20.538;2022-09-09T03:08:05;15.52;;;7.13;;
55150;SDS011;41041;43.162;20.538;2022-09-09T03:10:31;12.10;;;7.05;;
55150;SDS011;41041;43.162;20.538;2022-09-09T03:12:57;8.48;;;5.63;;
55150;SDS011;41041;43.162;20.538;2022-09-09T03:15:23;13.75;;;6.72;;
55150;SDS011;41041;43.162;20.538;2022-09-09T03:17:54;11.23;;;6.30;;
55150;SDS011;41041;43.162;20.538;2022-09-09T03:20:20;14.88;;;6.93;;
55150;SDS011;41041;43.162;20.538;2022-09-09T03:22:46;13.98;;;7.20;;
55150;SDS011;41041;43.162;20.538;2022-09-09T03:25:11;12.80;;;6.88;;
55150;SDS011;41041;43.162;20.538;2022-09-09T03:27:37;17.67;;;6.45;;
55150;SDS011;41041;43.162;20.538;2022-09-09T03:30:03;14.82;;;6.53;;
55150;SDS011;41041;43.162;20.538;2022-09-09T03:32:29;15.10;;;6.80;;
55150;SDS011;41041;43.162;20.538;2022-09-09T03:34:56;12.52;;;6.40;;
55150;SDS011;41041;43.162;20.538;2022-09-09T03:37:21;11.27;;;6.28;;
55150;SDS011;41041;43.162;20.538;2022-09-09T03:39:47;11.52;;;6.43;;
55150;SDS011;41041;43.162;20.538;2022-09-09T03:42:13;11.98;;;6.15;;
55150;SDS011;41041;43.162;20.538;2022-09-09T03:44:43;16.75;;;6.80;;
55150;SDS011;41041;43.162;20.538;2022-09-09T03:47:12;14.90;;;6.57;;
55150;SDS011;41041;43.162;20.538;2022-09-09T03:49:38;14.68;;;6.60;;
55150;SDS011;41041;43.162;20.538;2022-09-09T03:52:04;11.48;;;6.57;;
55150;SDS011;41041;43.162;20.538;2022-09-09T03:54:29;13.57;;;6.72;;
55150;SDS011;41041;43.162;20.538;2022-09-09T03:56:55;13.82;;;6.50;;
55150;SDS011;41041;43.162;20.538;2022-09-09T03:59:21;17.63;;;7.22;;
55150;SDS011;41041;43.162;20.538;2022-09-09T04:01:48;16.40;;;7.07;;
55150;SDS011;41041;43.162;20.538;2022-09-09T04:04:13;15.05;;;6.93;;
55150;SDS011;41041;43.162;20.538;2022-09-09T04:06:39;15.63;;;6.90;;
55150;SDS011;41041;43.162;20.538;2022-09-09T04:09:05;13.90;;;7.22;;
55150;SDS011;41041;43.162;20.538;2022-09-09T04:11:30;14.40;;;7.45;;
55150;SDS011;41041;43.162;20.538;2022-09-09T04:13:56;18.88;;;7.72;;
55150;SDS011;41041;43.162;20.538;2022-09-09T04:16:22;15.82;;;7.22;;
55150;SDS011;41041;43.162;20.538;2022-09-09T04:18:47;18.30;;;7.35;;
55150;SDS011;41041;43.162;20.538;2022-09-09T04:21:13;14.82;;;6.93;;
55150;SDS011;41041;43.162;20.538;2022-09-09T04:23:41;16.88;;;6.65;;
55150;SDS011;41041;43.162;20.538;2022-09-09T04:26:06;16.45;;;7.28;;
55150;SDS011;41041;43.162;20.538;2022-09-09T04:28:33;18.17;;;7.90;;
55150;SDS011;41041;43.162;20.538;2022-09-09T04:31:04;17.23;;;7.15;;
55150;SDS011;41041;43.162;20.538;2022-09-09T04:33:31;15.77;;;7.53;;
55150;SDS011;41041;43.162;20.538;2022-09-09T04:35:57;15.48;;;7.38;;
55150;SDS011;41041;43.162;20.538;2022-09-09T04:38:23;15.23;;;6.80;;
55150;SDS011;41041;43.162;20.538;2022-09-09T04:40:49;15.25;;;7.28;;
55150;SDS011;41041;43.162;20.538;2022-09-09T04:43:17;25.80;;;7.65;;
55150;SDS011;41041;43.162;20.538;2022-09-09T04:45:44;18.80;;;8.10;;
55150;SDS011;41041;43.162;20.538;2022-09-09T04:48:12;23.55;;;8.00;;
55150;SDS011;41041;43.162;20.538;2022-09-09T04:50:38;22.90;;;8.10;;
55150;SDS011;41041;43.162;20.538;2022-09-09T04:53:05;19.73;;;8.68;;
55150;SDS011;41041;43.162;20.538;2022-09-09T04:55:32;26.42;;;9.00;;
55150;SDS011;41041;43.162;20.538;2022-09-09T04:58:02;20.63;;;7.97;;
55150;SDS011;41041;43.162;20.538;2022-09-09T05:00:30;22.60;;;8.55;;
55150;SDS011;41041;43.162;20.538;2022-09-09T05:02:56;20.15;;;7.38;;
55150;SDS011;41041;43.162;20.538;2022-09-09T05:05:22;15.93;;;8.95;;
55150;SDS011;41041;43.162;20.538;2022-09-09T05:07:47;23.50;;;9.43;;
55150;SDS011;41041;43.162;20.538;2022-09-09T05:10:14;20.50;;;8.20;;
55150;SDS011;41041;43.162;20.538;2022-09-09T05:12:41;15.38;;;8.50;;
55150;SDS011;41041;43.162;20.538;2022-09-09T05:15:07;17.67;;;8.40;;
55150;SDS011;41041;43.162;20.538;2022-09-09T05:17:34;14.25;;;8.40;;
55150;SDS011;41041;43.162;20.538;2022-09-09T05:20:00;20.30;;;8.18;;
55150;SDS011;41041;43.162;20.538;2022-09-09T05:22:27;15.90;;;8.32;;
55150;SDS011;41041;43.162;20.538;2022-09-09T05:24:53;16.63;;;8.68;;
55150;SDS011;41041;43.162;20.538;2022-09-09T05:27:19;16.10;;;8.73;;
55150;SDS011;41041;43.162;20.538;2022-09-09T05:29:45;17.17;;;9.32;;
55150;SDS011;41041;43.162;20.538;2022-09-09T05:32:11;16.85;;;8.52;;
55150;SDS011;41041;43.162;20.538;2022-09-09T05:34:40;16.13;;;8.48;;
55150;SDS011;41041;43.162;20.538;2022-09-09T05:37:05;15.52;;;8.23;;
55150;SDS011;41041;43.162;20.538;2022-09-09T05:39:32;13.60;;;7.63;;
55150;SDS011;41041;43.162;20.538;2022-09-09T05:41:59;17.27;;;7.68;;
55150;SDS011;41041;43.162;20.538;2022-09-09T05:44:24;19.88;;;8.43;;
55150;SDS011;41041;43.162;20.538;2022-09-09T05:46:52;36.78;;;22.27;;
55150;SDS011;41041;43.162;20.538;2022-09-09T05:49:19;28.63;;;14.68;;
55150;SDS011;41041;43.162;20.538;2022-09-09T05:51:45;22.10;;;12.65;;
55150;SDS011;41041;43.162;20.538;2022-09-09T05:54:11;20.73;;;10.85;;
55150;SDS011;41041;43.162;20.538;2022-09-09T05:56:40;17.85;;;10.00;;
55150;SDS011;41041;43.162;20.538;2022-09-09T05:59:06;19.42;;;9.63;;
55150;SDS011;41041;43.162;20.538;2022-09-09T06:01:33;16.85;;;8.93;;
55150;SDS011;41041;43.162;20.538;2022-09-09T06:04:00;18.75;;;8.90;;
55150;SDS011;41041;43.162;20.538;2022-09-09T06:06:36;18.60;;;9.27;;
55150;SDS011;41041;43.162;20.538;2022-09-09T06:09:05;16.83;;;9.15;;
55150;SDS011;41041;43.162;20.538;2022-09-09T06:11:35;21.80;;;8.93;;
55150;SDS011;41041;43.162;20.538;2022-09-09T06:14:02;14.07;;;8.07;;
55150;SDS011;41041;43.162;20.538;2022-09-09T06:16:29;15.73;;;8.07;;
55150;SDS011;41041;43.162;20.538;2022-09-09T06:18:57;20.15;;;8.23;;
55150;SDS011;41041;43.162;20.538;2022-09-09T06:21:25;17.77;;;8.88;;
55150;SDS011;41041;43.162;20.538;2022-09-09T06:23:52;14.93;;;8.27;;
55150;SDS011;41041;43.162;20.538;2022-09-09T06:28:47;15.75;;;8.63;;
55150;SDS011;41041;43.162;20.538;2022-09-09T06:31:15;16.00;;;8.75;;
55150;SDS011;41041;43.162;20.538;2022-09-09T06:33:51;15.90;;;8.52;;
55150;SDS011;41041;43.162;20.538;2022-09-09T06:36:18;15.52;;;8.63;;
55150;SDS011;41041;43.162;20.538;2022-09-09T06:38:45;13.88;;;8.27;;
55150;SDS011;41041;43.162;20.538;2022-09-09T06:41:11;14.38;;;8.10;;
55150;SDS011;41041;43.162;20.538;2022-09-09T06:43:38;15.30;;;8.90;;
55150;SDS011;41041;43.162;20.538;2022-09-09T06:46:11;21.95;;;9.65;;
55150;SDS011;41041;43.162;20.538;2022-09-09T06:48:38;16.92;;;9.05;;
55150;SDS011;41041;43.162;20.538;2022-09-09T06:51:11;17.45;;;9.13;;
55150;SDS011;41041;43.162;20.538;2022-09-09T06:53:38;17.27;;;9.18;;
55150;SDS011;41041;43.162;20.538;2022-09-09T06:58:40;18.45;;;11.93;;
55150;SDS011;41041;43.162;20.538;2022-09-09T07:01:11;21.38;;;12.05;;
55150;SDS011;41041;43.162;20.538;2022-09-09T07:03:37;21.48;;;12.00;;
55150;SDS011;41041;43.162;20.538;2022-09-09T07:06:04;19.85;;;12.27;;
55150;SDS011;41041;43.162;20.538;2022-09-09T07:08:30;25.90;;;12.25;;
55150;SDS011;41041;43.162;20.538;2022-09-09T07:11:03;23.15;;;12.70;;
55150;SDS011;41041;43.162;20.538;2022-09-09T07:13:30;22.73;;;13.13;;
55150;SDS011;41041;43.162;20.538;2022-09-09T07:16:04;25.17;;;13.45;;
55150;SDS011;41041;43.162;20.538;2022-09-09T07:18:31;24.05;;;15.13;;
55150;SDS011;41041;43.162;20.538;2022-09-09T07:20:58;23.23;;;13.18;;
55150;SDS011;41041;43.162;20.538;2022-09-09T07:23:24;23.55;;;13.60;;
55150;SDS011;41041;43.162;20.538;2022-09-09T07:25:51;26.00;;;14.80;;
55150;SDS011;41041;43.162;20.538;2022-09-09T07:28:17;30.98;;;19.52;;
55150;SDS011;41041;43.162;20.538;2022-09-09T07:30:52;41.00;;;24.70;;
55150;SDS011;41041;43.162;20.538;2022-09-09T07:33:22;34.58;;;21.92;;
55150;SDS011;41041;43.162;20.538;2022-09-09T07:35:48;28.35;;;14.98;;
55150;SDS011;41041;43.162;20.538;2022-09-09T07:38:15;24.83;;;12.48;;
55150;SDS011;41041;43.162;20.538;2022-09-09T07:40:41;19.27;;;12.70;;
55150;SDS011;41041;43.162;20.538;2022-09-09T07:43:07;18.05;;;11.27;;
55150;SDS011;41041;43.162;20.538;2022-09-09T07:45:33;21.17;;;11.57;;
55150;SDS011;41041;43.162;20.538;2022-09-09T07:48:00;16.48;;;10.77;;
55150;SDS011;41041;43.162;20.538;2022-09-09T07:50:27;15.00;;;9.23;;
55150;SDS011;41041;43.162;20.538;2022-09-09T07:52:53;14.15;;;7.95;;
55150;SDS011;41041;43.162;20.538;2022-09-09T07:55:20;13.38;;;7.78;;
55150;SDS011;41041;43.162;20.538;2022-09-09T07:57:46;14.07;;;8.15;;
55150;SDS011;41041;43.162;20.538;2022-09-09T08:00:12;17.33;;;9.75;;
55150;SDS011;41041;43.162;20.538;2022-09-09T08:02:40;25.95;;;16.38;;
55150;SDS011;41041;43.162;20.538;2022-09-09T08:05:06;40.53;;;24.42;;
55150;SDS011;41041;43.162;20.538;2022-09-09T08:07:32;23.45;;;13.30;;
55150;SDS011;41041;43.162;20.538;2022-09-09T08:09:57;15.93;;;10.13;;
55150;SDS011;41041;43.162;20.538;2022-09-09T08:12:23;15.60;;;8.40;;
55150;SDS011;41041;43.162;20.538;2022-09-09T08:14:49;15.00;;;8.88;;
55150;SDS011;41041;43.162;20.538;2022-09-09T08:17:16;14.27;;;7.38;;
55150;SDS011;41041;43.162;20.538;2022-09-09T08:19:42;18.02;;;8.85;;
55150;SDS011;41041;43.162;20.538;2022-09-09T08:22:09;20.27;;;9.85;;
55150;SDS011;41041;43.162;20.538;2022-09-09T08:24:35;13.75;;;7.95;;
55150;SDS011;41041;43.162;20.538;2022-09-09T08:27:01;12.45;;;6.65;;
55150;SDS011;41041;43.162;20.538;2022-09-09T08:29:27;13.60;;;6.95;;
55150;SDS011;41041;43.162;20.538;2022-09-09T08:31:57;9.57;;;6.13;;
55150;SDS011;41041;43.162;20.538;2022-09-09T08:34:23;13.50;;;6.93;;
55150;SDS011;41041;43.162;20.538;2022-09-09T08:36:52;17.60;;;10.30;;
55150;SDS011;41041;43.162;20.538;2022-09-09T08:39:19;18.23;;;9.60;;
55150;SDS011;41041;43.162;20.538;2022-09-09T09:08:52;12.10;;;6.97;;
55150;SDS011;41041;43.162;20.538;2022-09-09T09:11:21;15.18;;;7.50;;
55150;SDS011;41041;43.162;20.538;2022-09-09T09:19:19;15.25;;;6.32;;
55150;SDS011;41041;43.162;20.538;2022-09-09T09:24:49;10.00;;;5.00;;
55150;SDS011;41041;43.162;20.538;2022-09-09T09:30:22;13.27;;;5.13;;
55150;SDS011;41041;43.162;20.538;2022-09-09T09:32:56;9.25;;;5.03;;
55150;SDS011;41041;43.162;20.538;2022-09-09T09:35:27;8.13;;;4.75;;
55150;SDS011;41041;43.162;20.538;2022-09-09T09:37:55;9.70;;;5.35;;
55150;SDS011;41041;43.162;20.538;2022-09-09T09:40:22;10.50;;;4.57;;
55150;SDS011;41041;43.162;20.538;2022-09-09T09:42:56;7.03;;;4.22;;
55150;SDS011;41041;43.162;20.538;2022-09-09T09:45:27;10.23;;;4.57;;
55150;SDS011;41041;43.162;20.538;2022-09-09T09:48:04;9.93;;;5.10;;
55150;SDS011;41041;43.162;20.538;2022-09-09T09:50:31;9.68;;;4.88;;
55150;SDS011;41041;43.162;20.538;2022-09-09T09:53:01;12.07;;;4.75;;
55150;SDS011;41041;43.162;20.538;2022-09-09T09:55:29;10.57;;;5.38;;
55150;SDS011;41041;43.162;20.538;2022-09-09T09:58:06;10.70;;;5.57;;
55150;SDS011;41041;43.162;20.538;2022-09-09T10:00:32;12.35;;;5.05;;
55150;SDS011;41041;43.162;20.538;2022-09-09T10:03:02;8.50;;;5.03;;
55150;SDS011;41041;43.162;20.538;2022-09-09T10:05:44;7.72;;;5.13;;
55150;SDS011;41041;43.162;20.538;2022-09-09T10:08:11;10.05;;;4.95;;
55150;SDS011;41041;43.162;20.538;2022-09-09T10:13:18;8.05;;;4.20;;
55150;SDS011;41041;43.162;20.538;2022-09-09T10:20:56;9.18;;;4.30;;
55150;SDS011;41041;43.162;20.538;2022-09-09T10:23:44;11.15;;;4.15;;
55150;SDS011;41041;43.162;20.538;2022-09-09T10:29:35;7.20;;;3.40;;
55150;SDS011;41041;43.162;20.538;2022-09-09T10:32:39;6.38;;;3.55;;
55150;SDS011;41041;43.162;20.538;2022-09-09T10:35:14;8.75;;;3.53;;
55150;SDS011;41041;43.162;20.538;2022-09-09T10:57:31;10.13;;;4.00;;
55150;SDS011;41041;43.162;20.538;2022-09-09T11:00:05;9.00;;;4.27;;
55150;SDS011;41041;43.162;20.538;2022-09-09T11:02:39;9.57;;;4.28;;
55150;SDS011;41041;43.162;20.538;2022-09-09T11:07:43;10.70;;;4.47;;
55150;SDS011;41041;43.162;20.538;2022-09-09T11:10:34;11.20;;;3.97;;
55150;SDS011;41041;43.162;20.538;2022-09-09T11:13:24;8.77;;;4.25;;
55150;SDS011;41041;43.162;20.538;2022-09-09T11:16:19;7.57;;;4.50;;
55150;SDS011;41041;43.162;20.538;2022-09-09T11:19:15;7.70;;;4.70;;
55150;SDS011;41041;43.162;20.538;2022-09-09T11:21:59;10.65;;;4.93;;
55150;SDS011;41041;43.162;20.538;2022-09-09T11:24:49;9.60;;;4.72;;
55150;SDS011;41041;43.162;20.538;2022-09-09T11:27:37;9.65;;;4.55;;
55150;SDS011;41041;43.162;20.538;2022-09-09T11:33:38;6.80;;;3.97;;
55150;SDS011;41041;43.162;20.538;2022-09-09T11:38:42;9.00;;;4.38;;
55150;SDS011;41041;43.162;20.538;2022-09-09T11:41:12;13.35;;;4.57;;
55150;SDS011;41041;43.162;20.538;2022-09-09T11:43:39;11.32;;;4.90;;
55150;SDS011;41041;43.162;20.538;2022-09-09T11:46:06;8.00;;;4.80;;
55150;SDS011;41041;43.162;20.538;2022-09-09T11:48:36;8.63;;;4.20;;
55150;SDS011;41041;43.162;20.538;2022-09-09T11:51:08;10.68;;;4.70;;
55150;SDS011;41041;43.162;20.538;2022-09-09T11:53:47;8.02;;;3.92;;
55150;SDS011;41041;43.162;20.538;2022-09-09T11:56:45;12.80;;;5.35;;
55150;SDS011;41041;43.162;20.538;2022-09-09T11:59:20;9.00;;;4.22;;
55150;SDS011;41041;43.162;20.538;2022-09-09T12:02:01;9.65;;;4.45;;
55150;SDS011;41041;43.162;20.538;2022-09-09T12:04:35;9.40;;;4.38;;
55150;SDS011;41041;43.162;20.538;2022-09-09T12:12:34;8.68;;;4.05;;
55150;SDS011;41041;43.162;20.538;2022-09-09T12:17:44;7.35;;;4.03;;
55150;SDS011;41041;43.162;20.538;2022-09-09T12:25:46;7.22;;;3.55;;
55150;SDS011;41041;43.162;20.538;2022-09-09T12:28:31;8.25;;;3.83;;
55150;SDS011;41041;43.162;20.538;2022-09-09T12:37:13;7.97;;;3.20;;
55150;SDS011;41041;43.162;20.538;2022-09-09T12:40:02;7.67;;;3.77;;
55150;SDS011;41041;43.162;20.538;2022-09-09T12:42:29;7.45;;;3.90;;
55150;SDS011;41041;43.162;20.538;2022-09-09T12:44:59;7.53;;;2.85;;
55150;SDS011;41041;43.162;20.538;2022-09-09T12:47:43;8.73;;;3.03;;
55150;SDS011;41041;43.162;20.538;2022-09-09T12:52:54;5.47;;;3.10;;
55150;SDS011;41041;43.162;20.538;2022-09-09T12:55:33;7.90;;;3.35;;
55150;SDS011;41041;43.162;20.538;2022-09-09T12:58:00;5.22;;;3.03;;
55150;SDS011;41041;43.162;20.538;2022-09-09T13:00:33;6.50;;;3.20;;
55150;SDS011;41041;43.162;20.538;2022-09-09T13:03:00;4.72;;;3.10;;
55150;SDS011;41041;43.162;20.538;2022-09-09T13:05:37;7.30;;;3.10;;
55150;SDS011;41041;43.162;20.538;2022-09-09T13:08:11;4.63;;;2.78;;
55150;SDS011;41041;43.162;20.538;2022-09-09T13:10:38;4.63;;;3.15;;
55150;SDS011;41041;43.162;20.538;2022-09-09T13:13:27;9.50;;;3.00;;
55150;SDS011;41041;43.162;20.538;2022-09-09T13:15:58;8.25;;;3.05;;
55150;SDS011;41041;43.162;20.538;2022-09-09T13:18:28;6.32;;;3.00;;
55150;SDS011;41041;43.162;20.538;2022-09-09T13:20:55;7.20;;;3.08;;
55150;SDS011;41041;43.162;20.538;2022-09-09T13:23:26;8.20;;;3.70;;
55150;SDS011;41041;43.162;20.538;2022-09-09T13:25:55;7.13;;;3.20;;
55150;SDS011;41041;43.162;20.538;2022-09-09T13:28:27;10.75;;;3.00;;
55150;SDS011;41041;43.162;20.538;2022-09-09T13:31:02;5.40;;;2.85;;
55150;SDS011;41041;43.162;20.538;2022-09-09T13:38:24;6.53;;;3.20;;
55150;SDS011;41041;43.162;20.538;2022-09-09T13:40:54;8.13;;;3.05;;
55150;SDS011;41041;43.162;20.538;2022-09-09T13:43:22;6.53;;;2.97;;
55150;SDS011;41041;43.162;20.538;2022-09-09T13:45:54;6.65;;;2.80;;
55150;SDS011;41041;43.162;20.538;2022-09-09T13:48:21;9.32;;;3.65;;
55150;SDS011;41041;43.162;20.538;2022-09-09T13:50:54;5.43;;;3.10;;
55150;SDS011;41041;43.162;20.538;2022-09-09T13:53:20;5.13;;;2.88;;
55150;SDS011;41041;43.162;20.538;2022-09-09T13:55:46;5.88;;;3.10;;
55150;SDS011;41041;43.162;20.538;2022-09-09T13:58:15;5.47;;;3.08;;
55150;SDS011;41041;43.162;20.538;2022-09-09T14:00:44;4.90;;;2.60;;
55150;SDS011;41041;43.162;20.538;2022-09-09T14:03:10;5.32;;;2.92;;
55150;SDS011;41041;43.162;20.538;2022-09-09T14:05:36;4.95;;;3.13;;
55150;SDS011;41041;43.162;20.538;2022-09-09T14:08:06;8.25;;;2.97;;
55150;SDS011;41041;43.162;20.538;2022-09-09T14:10:39;7.60;;;3.03;;
55150;SDS011;41041;43.162;20.538;2022-09-09T14:13:05;5.90;;;3.00;;
55150;SDS011;41041;43.162;20.538;2022-09-09T14:15:33;6.40;;;3.30;;
55150;SDS011;41041;43.162;20.538;2022-09-09T14:17:59;5.47;;;3.20;;
55150;SDS011;41041;43.162;20.538;2022-09-09T14:20:25;5.07;;;2.90;;
55150;SDS011;41041;43.162;20.538;2022-09-09T14:22:51;5.57;;;3.15;;
55150;SDS011;41041;43.162;20.538;2022-09-09T14:25:18;7.00;;;3.10;;
55150;SDS011;41041;43.162;20.538;2022-09-09T14:27:44;4.93;;;2.88;;
55150;SDS011;41041;43.162;20.538;2022-09-09T14:30:14;6.40;;;3.20;;
55150;SDS011;41041;43.162;20.538;2022-09-09T14:32:40;6.60;;;3.15;;
55150;SDS011;41041;43.162;20.538;2022-09-09T14:35:06;5.00;;;2.88;;
55150;SDS011;41041;43.162;20.538;2022-09-09T14:37:32;7.10;;;3.42;;
55150;SDS011;41041;43.162;20.538;2022-09-09T14:39:58;8.05;;;3.42;;
55150;SDS011;41041;43.162;20.538;2022-09-09T14:42:24;9.15;;;3.80;;
55150;SDS011;41041;43.162;20.538;2022-09-09T14:44:51;14.23;;;6.50;;
55150;SDS011;41041;43.162;20.538;2022-09-09T14:47:17;13.27;;;6.70;;
55150;SDS011;41041;43.162;20.538;2022-09-09T14:49:51;9.25;;;3.78;;
55150;SDS011;41041;43.162;20.538;2022-09-09T14:52:18;7.80;;;4.03;;
55150;SDS011;41041;43.162;20.538;2022-09-09T14:54:45;10.48;;;4.15;;
55150;SDS011;41041;43.162;20.538;2022-09-09T14:57:11;8.48;;;3.15;;
55150;SDS011;41041;43.162;20.538;2022-09-09T14:59:38;17.23;;;4.10;;
55150;SDS011;41041;43.162;20.538;2022-09-09T15:02:04;9.02;;;3.58;;
55150;SDS011;41041;43.162;20.538;2022-09-09T15:04:31;8.07;;;3.58;;
55150;SDS011;41041;43.162;20.538;2022-09-09T15:06:57;10.43;;;3.30;;
55150;SDS011;41041;43.162;20.538;2022-09-09T15:09:23;11.27;;;2.92;;
55150;SDS011;41041;43.162;20.538;2022-09-09T15:11:49;8.90;;;2.70;;
55150;SDS011;41041;43.162;20.538;2022-09-09T15:14:15;6.43;;;1.90;;
55150;SDS011;41041;43.162;20.538;2022-09-09T15:16:42;10.82;;;2.20;;
55150;SDS011;41041;43.162;20.538;2022-09-09T15:19:14;8.93;;;2.03;;
55150;SDS011;41041;43.162;20.538;2022-09-09T15:21:40;10.00;;;2.70;;
55150;SDS011;41041;43.162;20.538;2022-09-09T15:24:06;12.75;;;4.47;;
55150;SDS011;41041;43.162;20.538;2022-09-09T15:26:33;14.23;;;4.90;;
55150;SDS011;41041;43.162;20.538;2022-09-09T15:29:03;12.95;;;4.78;;
55150;SDS011;41041;43.162;20.538;2022-09-09T15:31:30;18.83;;;4.70;;
55150;SDS011;41041;43.162;20.538;2022-09-09T15:34:03;13.15;;;4.43;;
55150;SDS011;41041;43.162;20.538;2022-09-09T15:36:31;14.15;;;3.72;;
55150;SDS011;41041;43.162;20.538;2022-09-09T15:38:57;15.32;;;3.28;;
55150;SDS011;41041;43.162;20.538;2022-09-09T15:41:24;16.05;;;3.92;;
55150;SDS011;41041;43.162;20.538;2022-09-09T15:46:31;15.98;;;4.55;;
55150;SDS011;41041;43.162;20.538;2022-09-09T15:49:09;14.40;;;5.28;;
55150;SDS011;41041;43.162;20.538;2022-09-09T15:51:36;13.13;;;4.38;;
55150;SDS011;41041;43.162;20.538;2022-09-09T15:54:03;11.32;;;3.80;;
55150;SDS011;41041;43.162;20.538;2022-09-09T15:56:30;9.90;;;3.45;;
55150;SDS011;41041;43.162;20.538;2022-09-09T15:58:56;11.80;;;3.20;;
55150;SDS011;41041;43.162;20.538;2022-09-09T16:01:24;16.58;;;3.80;;
55150;SDS011;41041;43.162;20.538;2022-09-09T16:03:50;19.50;;;4.10;;
55150;SDS011;41041;43.162;20.538;2022-09-09T16:06:17;15.90;;;5.10;;
55150;SDS011;41041;43.162;20.538;2022-09-09T16:08:44;14.02;;;4.03;;
55150;SDS011;41041;43.162;20.538;2022-09-09T16:11:15;12.80;;;3.08;;
55150;SDS011;41041;43.162;20.538;2022-09-09T16:13:43;10.55;;;2.97;;
55150;SDS011;41041;43.162;20.538;2022-09-09T16:16:13;10.40;;;3.05;;
55150;SDS011;41041;43.162;20.538;2022-09-09T16:18:40;12.50;;;3.33;;
55150;SDS011;41041;43.162;20.538;2022-09-09T16:21:07;12.88;;;3.13;;
55150;SDS011;41041;43.162;20.538;2022-09-09T16:23:35;11.35;;;2.75;;
55150;SDS011;41041;43.162;20.538;2022-09-09T16:29:10;17.45;;;7.25;;
55150;SDS011;41041;43.162;20.538;2022-09-09T16:31:36;11.82;;;4.55;;
55150;SDS011;41041;43.162;20.538;2022-09-09T16:34:14;12.65;;;4.70;;
55150;SDS011;41041;43.162;20.538;2022-09-09T16:36:41;13.27;;;4.80;;
55150;SDS011;41041;43.162;20.538;2022-09-09T16:39:09;15.05;;;5.05;;
55150;SDS011;41041;43.162;20.538;2022-09-09T16:41:36;13.10;;;5.25;;
55150;SDS011;41041;43.162;20.538;2022-09-09T16:44:04;13.38;;;5.38;;
55150;SDS011;41041;43.162;20.538;2022-09-09T16:46:31;15.68;;;6.45;;
55150;SDS011;41041;43.162;20.538;2022-09-09T16:48:58;12.48;;;6.00;;
55150;SDS011;41041;43.162;20.538;2022-09-09T16:51:28;10.85;;;5.85;;
55150;SDS011;41041;43.162;20.538;2022-09-09T16:53:57;14.90;;;6.53;;
55150;SDS011;41041;43.162;20.538;2022-09-09T16:56:24;18.15;;;6.20;;
55150;SDS011;41041;43.162;20.538;2022-09-09T16:58:51;13.02;;;5.80;;
55150;SDS011;41041;43.162;20.538;2022-09-09T17:01:19;11.55;;;5.47;;
55150;SDS011;41041;43.162;20.538;2022-09-09T17:03:45;15.05;;;6.78;;
55150;SDS011;41041;43.162;20.538;2022-09-09T17:06:12;12.07;;;5.30;;
55150;SDS011;41041;43.162;20.538;2022-09-09T17:08:39;9.48;;;4.30;;
55150;SDS011;41041;43.162;20.538;2022-09-09T17:11:16;10.85;;;4.55;;
55150;SDS011;41041;43.162;20.538;2022-09-09T17:13:43;12.80;;;4.55;;
55150;SDS011;41041;43.162;20.538;2022-09-09T17:16:09;10.10;;;6.40;;
55150;SDS011;41041;43.162;20.538;2022-09-09T17:18:36;19.02;;;8.73;;
55150;SDS011;41041;43.162;20.538;2022-09-09T17:21:03;12.32;;;5.88;;